sensor_id;sensor_type;location;lat;lon;timestamp;P1;durP1;ratioP1;P2;durP2;ratioP2
10056;SDS011;5068;51.286;7.518;2022-12-07T00:01:06;14.52;;;9.98;;
10056;SDS011;5068;51.286;7.518;2022-12-07T00:02:41;13.75;;;9.27;;
10056;SDS011;5068;51.286;7.518;2022-12-07T00:04:17;15.38;;;10.02;;
10056;SDS011;5068;51.286;7.518;2022-12-07T00:05:50;17.60;;;10.15;;
10056;SDS011;5068;51.286;7.518;2022-12-07T00:07:22;16.52;;;10.32;;
10056;SDS011;5068;51.286;7.518;2022-12-07T00:08:58;16.13;;;9.57;;
10056;SDS011;5068;51.286;7.518;2022-12-07T00:10:32;16.13;;;10.23;;
10056;SDS011;5068;51.286;7.518;2022-12-07T00:12:06;16.25;;;10.65;;
10056;SDS011;5068;51.286;7.518;2022-12-07T00:13:39;18.02;;;10.80;;
10056;SDS011;5068;51.286;7.518;2022-12-07T00:15:12;16.60;;;11.27;;
10056;SDS011;5068;51.286;7.518;2022-12-07T00:16:45;17.38;;;10.23;;
10056;SDS011;5068;51.286;7.518;2022-12-07T00:18:21;18.23;;;11.20;;
10056;SDS011;5068;51.286;7.518;2022-12-07T00:19:54;15.90;;;9.77;;
10056;SDS011;5068;51.286;7.518;2022-12-07T00:21:28;17.55;;;11.95;;
10056;SDS011;5068;51.286;7.518;2022-12-07T00:23:03;19.98;;;10.95;;
10056;SDS011;5068;51.286;7.518;2022-12-07T00:24:36;17.67;;;11.77;;
10056;SDS011;5068;51.286;7.518;2022-12-07T00:26:09;19.15;;;10.80;;
10056;SDS011;5068;51.286;7.518;2022-12-07T00:27:45;16.17;;;10.77;;
10056;SDS011;5068;51.286;7.518;2022-12-07T00:29:19;18.60;;;11.63;;
10056;SDS011;5068;51.286;7.518;2022-12-07T00:30:59;15.88;;;10.35;;
10056;SDS011;5068;51.286;7.518;2022-12-07T00:32:33;19.08;;;11.43;;
10056;SDS011;5068;51.286;7.518;2022-12-07T00:34:07;17.75;;;10.65;;
10056;SDS011;5068;51.286;7.518;2022-12-07T00:35:47;17.08;;;10.27;;
10056;SDS011;5068;51.286;7.518;2022-12-07T00:37:28;18.63;;;11.07;;
10056;SDS011;5068;51.286;7.518;2022-12-07T00:39:01;17.83;;;11.15;;
10056;SDS011;5068;51.286;7.518;2022-12-07T00:40:34;16.90;;;11.10;;
10056;SDS011;5068;51.286;7.518;2022-12-07T00:42:07;17.30;;;11.57;;
10056;SDS011;5068;51.286;7.518;2022-12-07T00:43:41;20.85;;;11.00;;
10056;SDS011;5068;51.286;7.518;2022-12-07T00:45:15;16.70;;;10.95;;
10056;SDS011;5068;51.286;7.518;2022-12-07T00:46:49;16.58;;;11.00;;
10056;SDS011;5068;51.286;7.518;2022-12-07T00:48:22;17.67;;;11.50;;
10056;SDS011;5068;51.286;7.518;2022-12-07T00:49:56;18.92;;;11.55;;
10056;SDS011;5068;51.286;7.518;2022-12-07T00:51:31;18.25;;;11.38;;
10056;SDS011;5068;51.286;7.518;2022-12-07T00:53:05;17.48;;;10.57;;
10056;SDS011;5068;51.286;7.518;2022-12-07T00:54:38;18.10;;;11.10;;
10056;SDS011;5068;51.286;7.518;2022-12-07T00:56:13;17.48;;;11.27;;
10056;SDS011;5068;51.286;7.518;2022-12-07T00:57:48;19.17;;;11.02;;
10056;SDS011;5068;51.286;7.518;2022-12-07T00:59:22;18.65;;;11.52;;
10056;SDS011;5068;51.286;7.518;2022-12-07T01:00:55;17.85;;;10.77;;
10056;SDS011;5068;51.286;7.518;2022-12-07T01:02:33;16.48;;;11.07;;
10056;SDS011;5068;51.286;7.518;2022-12-07T01:04:06;17.98;;;10.95;;
10056;SDS011;5068;51.286;7.518;2022-12-07T01:05:40;19.77;;;12.02;;
10056;SDS011;5068;51.286;7.518;2022-12-07T01:07:24;21.65;;;12.02;;
10056;SDS011;5068;51.286;7.518;2022-12-07T01:08:57;18.85;;;11.65;;
10056;SDS011;5068;51.286;7.518;2022-12-07T01:10:31;18.60;;;11.57;;
10056;SDS011;5068;51.286;7.518;2022-12-07T01:12:04;19.00;;;11.15;;
10056;SDS011;5068;51.286;7.518;2022-12-07T01:13:38;18.00;;;10.50;;
10056;SDS011;5068;51.286;7.518;2022-12-07T01:15:11;18.13;;;10.85;;
10056;SDS011;5068;51.286;7.518;2022-12-07T01:16:44;22.65;;;11.77;;
10056;SDS011;5068;51.286;7.518;2022-12-07T01:18:17;17.70;;;10.93;;
10056;SDS011;5068;51.286;7.518;2022-12-07T01:19:50;19.63;;;12.02;;
10056;SDS011;5068;51.286;7.518;2022-12-07T01:21:24;18.73;;;10.95;;
10056;SDS011;5068;51.286;7.518;2022-12-07T01:23:00;17.65;;;11.35;;
10056;SDS011;5068;51.286;7.518;2022-12-07T01:24:33;18.75;;;10.15;;
10056;SDS011;5068;51.286;7.518;2022-12-07T01:26:07;18.20;;;10.75;;
10056;SDS011;5068;51.286;7.518;2022-12-07T01:27:44;17.17;;;10.77;;
10056;SDS011;5068;51.286;7.518;2022-12-07T01:29:17;18.45;;;11.18;;
10056;SDS011;5068;51.286;7.518;2022-12-07T01:30:57;17.35;;;11.30;;
10056;SDS011;5068;51.286;7.518;2022-12-07T01:32:32;16.52;;;10.27;;
10056;SDS011;5068;51.286;7.518;2022-12-07T01:34:05;18.23;;;11.23;;
10056;SDS011;5068;51.286;7.518;2022-12-07T01:35:38;18.85;;;10.93;;
10056;SDS011;5068;51.286;7.518;2022-12-07T01:37:11;18.25;;;11.10;;
10056;SDS011;5068;51.286;7.518;2022-12-07T01:38:46;17.85;;;10.10;;
10056;SDS011;5068;51.286;7.518;2022-12-07T01:40:24;18.73;;;10.93;;
10056;SDS011;5068;51.286;7.518;2022-12-07T01:41:57;18.23;;;10.93;;
10056;SDS011;5068;51.286;7.518;2022-12-07T01:43:31;17.23;;;10.43;;
10056;SDS011;5068;51.286;7.518;2022-12-07T01:47:16;16.75;;;9.82;;
10056;SDS011;5068;51.286;7.518;2022-12-07T01:48:49;16.95;;;11.20;;
10056;SDS011;5068;51.286;7.518;2022-12-07T01:50:21;17.63;;;11.10;;
10056;SDS011;5068;51.286;7.518;2022-12-07T01:52:02;18.98;;;11.40;;
10056;SDS011;5068;51.286;7.518;2022-12-07T01:53:47;16.70;;;9.82;;
10056;SDS011;5068;51.286;7.518;2022-12-07T01:55:20;17.23;;;10.73;;
10056;SDS011;5068;51.286;7.518;2022-12-07T01:56:54;18.40;;;10.90;;
10056;SDS011;5068;51.286;7.518;2022-12-07T01:58:29;17.42;;;10.55;;
10056;SDS011;5068;51.286;7.518;2022-12-07T02:00:03;16.30;;;9.95;;
10056;SDS011;5068;51.286;7.518;2022-12-07T02:01:46;17.52;;;9.85;;
10056;SDS011;5068;51.286;7.518;2022-12-07T02:03:21;18.20;;;10.35;;
10056;SDS011;5068;51.286;7.518;2022-12-07T02:05:02;17.70;;;10.10;;
10056;SDS011;5068;51.286;7.518;2022-12-07T02:06:35;15.88;;;10.15;;
10056;SDS011;5068;51.286;7.518;2022-12-07T02:08:10;16.23;;;9.38;;
10056;SDS011;5068;51.286;7.518;2022-12-07T02:09:47;14.95;;;10.07;;
10056;SDS011;5068;51.286;7.518;2022-12-07T02:11:20;15.75;;;10.23;;
10056;SDS011;5068;51.286;7.518;2022-12-07T02:12:55;19.60;;;9.98;;
10056;SDS011;5068;51.286;7.518;2022-12-07T02:14:33;18.83;;;10.60;;
10056;SDS011;5068;51.286;7.518;2022-12-07T02:16:09;16.13;;;9.68;;
10056;SDS011;5068;51.286;7.518;2022-12-07T02:18:00;17.20;;;10.32;;
10056;SDS011;5068;51.286;7.518;2022-12-07T02:19:57;14.55;;;9.75;;
10056;SDS011;5068;51.286;7.518;2022-12-07T02:21:46;14.57;;;8.95;;
10056;SDS011;5068;51.286;7.518;2022-12-07T02:25:54;14.90;;;9.20;;
10056;SDS011;5068;51.286;7.518;2022-12-07T02:27:50;15.60;;;8.90;;
10056;SDS011;5068;51.286;7.518;2022-12-07T02:29:34;13.23;;;9.18;;
10056;SDS011;5068;51.286;7.518;2022-12-07T02:31:14;17.05;;;9.27;;
10056;SDS011;5068;51.286;7.518;2022-12-07T02:32:54;17.15;;;10.20;;
10056;SDS011;5068;51.286;7.518;2022-12-07T02:34:34;15.13;;;9.90;;
10056;SDS011;5068;51.286;7.518;2022-12-07T02:36:17;16.05;;;10.05;;
10056;SDS011;5068;51.286;7.518;2022-12-07T02:37:58;13.55;;;8.48;;
10056;SDS011;5068;51.286;7.518;2022-12-07T02:39:41;14.02;;;8.88;;
10056;SDS011;5068;51.286;7.518;2022-12-07T02:41:22;14.75;;;9.85;;
10056;SDS011;5068;51.286;7.518;2022-12-07T02:43:02;14.30;;;9.32;;
10056;SDS011;5068;51.286;7.518;2022-12-07T02:44:43;14.15;;;8.98;;
10056;SDS011;5068;51.286;7.518;2022-12-07T02:46:19;13.75;;;9.18;;
10056;SDS011;5068;51.286;7.518;2022-12-07T02:47:58;13.07;;;8.68;;
10056;SDS011;5068;51.286;7.518;2022-12-07T02:49:33;12.57;;;8.23;;
10056;SDS011;5068;51.286;7.518;2022-12-07T02:51:07;13.25;;;8.95;;
10056;SDS011;5068;51.286;7.518;2022-12-07T02:52:40;15.32;;;8.90;;
10056;SDS011;5068;51.286;7.518;2022-12-07T02:54:14;13.45;;;8.88;;
10056;SDS011;5068;51.286;7.518;2022-12-07T02:55:50;16.50;;;10.25;;
10056;SDS011;5068;51.286;7.518;2022-12-07T02:57:27;14.40;;;8.80;;
10056;SDS011;5068;51.286;7.518;2022-12-07T02:59:21;14.75;;;9.10;;
10056;SDS011;5068;51.286;7.518;2022-12-07T03:01:14;13.98;;;8.88;;
10056;SDS011;5068;51.286;7.518;2022-12-07T03:02:58;14.85;;;8.57;;
10056;SDS011;5068;51.286;7.518;2022-12-07T03:04:39;12.38;;;8.63;;
10056;SDS011;5068;51.286;7.518;2022-12-07T03:06:22;13.23;;;8.85;;
10056;SDS011;5068;51.286;7.518;2022-12-07T03:08:03;13.43;;;8.25;;
10056;SDS011;5068;51.286;7.518;2022-12-07T03:09:45;14.52;;;8.50;;
10056;SDS011;5068;51.286;7.518;2022-12-07T03:11:29;13.15;;;8.68;;
10056;SDS011;5068;51.286;7.518;2022-12-07T03:13:16;13.82;;;8.10;;
10056;SDS011;5068;51.286;7.518;2022-12-07T03:15:05;13.55;;;9.07;;
10056;SDS011;5068;51.286;7.518;2022-12-07T03:16:49;15.32;;;8.70;;
10056;SDS011;5068;51.286;7.518;2022-12-07T03:18:30;13.60;;;8.95;;
10056;SDS011;5068;51.286;7.518;2022-12-07T03:21:49;11.95;;;8.38;;
10056;SDS011;5068;51.286;7.518;2022-12-07T03:23:28;13.80;;;8.90;;
10056;SDS011;5068;51.286;7.518;2022-12-07T03:25:08;13.90;;;8.57;;
10056;SDS011;5068;51.286;7.518;2022-12-07T03:26:46;14.32;;;8.88;;
10056;SDS011;5068;51.286;7.518;2022-12-07T03:28:28;14.10;;;9.20;;
10056;SDS011;5068;51.286;7.518;2022-12-07T03:30:10;13.65;;;8.88;;
10056;SDS011;5068;51.286;7.518;2022-12-07T03:31:51;13.25;;;8.77;;
10056;SDS011;5068;51.286;7.518;2022-12-07T03:33:36;13.05;;;8.88;;
10056;SDS011;5068;51.286;7.518;2022-12-07T03:35:16;13.90;;;8.38;;
10056;SDS011;5068;51.286;7.518;2022-12-07T03:36:56;13.13;;;8.77;;
10056;SDS011;5068;51.286;7.518;2022-12-07T03:38:38;14.45;;;8.88;;
10056;SDS011;5068;51.286;7.518;2022-12-07T03:40:18;13.60;;;9.30;;
10056;SDS011;5068;51.286;7.518;2022-12-07T03:41:57;14.38;;;9.23;;
10056;SDS011;5068;51.286;7.518;2022-12-07T03:43:35;15.75;;;9.45;;
10056;SDS011;5068;51.286;7.518;2022-12-07T03:45:10;14.50;;;9.35;;
10056;SDS011;5068;51.286;7.518;2022-12-07T03:48:28;13.13;;;7.82;;
10056;SDS011;5068;51.286;7.518;2022-12-07T03:50:11;12.85;;;8.00;;
10056;SDS011;5068;51.286;7.518;2022-12-07T03:51:54;11.82;;;7.65;;
10056;SDS011;5068;51.286;7.518;2022-12-07T03:53:34;13.80;;;7.95;;
10056;SDS011;5068;51.286;7.518;2022-12-07T03:55:14;12.88;;;7.68;;
10056;SDS011;5068;51.286;7.518;2022-12-07T03:56:55;14.52;;;8.35;;
10056;SDS011;5068;51.286;7.518;2022-12-07T03:58:30;12.73;;;7.97;;
10056;SDS011;5068;51.286;7.518;2022-12-07T04:00:06;13.60;;;8.50;;
10056;SDS011;5068;51.286;7.518;2022-12-07T04:01:56;10.88;;;7.18;;
10056;SDS011;5068;51.286;7.518;2022-12-07T04:03:35;11.68;;;7.30;;
10056;SDS011;5068;51.286;7.518;2022-12-07T04:05:09;13.45;;;7.30;;
10056;SDS011;5068;51.286;7.518;2022-12-07T04:06:42;12.13;;;7.72;;
10056;SDS011;5068;51.286;7.518;2022-12-07T04:08:15;13.63;;;7.68;;
10056;SDS011;5068;51.286;7.518;2022-12-07T04:09:49;13.00;;;7.90;;
10056;SDS011;5068;51.286;7.518;2022-12-07T04:11:22;14.75;;;8.85;;
10056;SDS011;5068;51.286;7.518;2022-12-07T04:12:55;13.57;;;7.75;;
10056;SDS011;5068;51.286;7.518;2022-12-07T04:14:29;15.70;;;8.75;;
10056;SDS011;5068;51.286;7.518;2022-12-07T04:16:01;12.52;;;7.70;;
10056;SDS011;5068;51.286;7.518;2022-12-07T04:17:36;16.10;;;8.20;;
10056;SDS011;5068;51.286;7.518;2022-12-07T04:19:09;15.32;;;7.95;;
10056;SDS011;5068;51.286;7.518;2022-12-07T04:20:42;14.75;;;7.38;;
10056;SDS011;5068;51.286;7.518;2022-12-07T04:22:15;16.10;;;8.48;;
10056;SDS011;5068;51.286;7.518;2022-12-07T04:23:48;14.60;;;8.07;;
10056;SDS011;5068;51.286;7.518;2022-12-07T04:25:21;14.52;;;8.40;;
10056;SDS011;5068;51.286;7.518;2022-12-07T04:26:54;11.52;;;7.32;;
10056;SDS011;5068;51.286;7.518;2022-12-07T04:28:28;13.52;;;7.63;;
10056;SDS011;5068;51.286;7.518;2022-12-07T04:30:01;12.43;;;7.97;;
10056;SDS011;5068;51.286;7.518;2022-12-07T04:31:49;13.35;;;7.25;;
10056;SDS011;5068;51.286;7.518;2022-12-07T04:33:23;14.63;;;8.63;;
10056;SDS011;5068;51.286;7.518;2022-12-07T04:34:55;12.52;;;7.72;;
10056;SDS011;5068;51.286;7.518;2022-12-07T04:36:29;14.82;;;8.23;;
10056;SDS011;5068;51.286;7.518;2022-12-07T04:38:02;12.90;;;7.50;;
10056;SDS011;5068;51.286;7.518;2022-12-07T04:39:35;12.55;;;8.00;;
10056;SDS011;5068;51.286;7.518;2022-12-07T04:41:08;13.80;;;7.55;;
10056;SDS011;5068;51.286;7.518;2022-12-07T04:42:42;13.75;;;7.97;;
10056;SDS011;5068;51.286;7.518;2022-12-07T04:44:14;13.60;;;7.75;;
10056;SDS011;5068;51.286;7.518;2022-12-07T04:45:48;14.13;;;7.75;;
10056;SDS011;5068;51.286;7.518;2022-12-07T04:47:23;13.15;;;7.50;;
10056;SDS011;5068;51.286;7.518;2022-12-07T04:48:57;12.05;;;7.13;;
10056;SDS011;5068;51.286;7.518;2022-12-07T04:50:30;11.65;;;6.85;;
10056;SDS011;5068;51.286;7.518;2022-12-07T04:52:03;15.60;;;8.38;;
10056;SDS011;5068;51.286;7.518;2022-12-07T04:53:37;13.93;;;8.18;;
10056;SDS011;5068;51.286;7.518;2022-12-07T04:55:10;16.00;;;7.53;;
10056;SDS011;5068;51.286;7.518;2022-12-07T04:56:43;12.75;;;7.47;;
10056;SDS011;5068;51.286;7.518;2022-12-07T04:58:16;12.50;;;7.00;;
10056;SDS011;5068;51.286;7.518;2022-12-07T04:59:49;15.18;;;7.80;;
10056;SDS011;5068;51.286;7.518;2022-12-07T05:01:24;13.63;;;7.70;;
10056;SDS011;5068;51.286;7.518;2022-12-07T05:02:57;13.18;;;7.45;;
10056;SDS011;5068;51.286;7.518;2022-12-07T05:04:30;11.98;;;6.65;;
10056;SDS011;5068;51.286;7.518;2022-12-07T05:06:05;12.68;;;7.07;;
10056;SDS011;5068;51.286;7.518;2022-12-07T05:07:44;14.20;;;6.80;;
10056;SDS011;5068;51.286;7.518;2022-12-07T05:09:17;12.88;;;6.85;;
10056;SDS011;5068;51.286;7.518;2022-12-07T05:10:50;12.43;;;6.68;;
10056;SDS011;5068;51.286;7.518;2022-12-07T05:12:23;13.02;;;7.10;;
10056;SDS011;5068;51.286;7.518;2022-12-07T05:13:56;11.85;;;7.43;;
10056;SDS011;5068;51.286;7.518;2022-12-07T05:15:29;11.93;;;7.15;;
10056;SDS011;5068;51.286;7.518;2022-12-07T05:17:02;13.85;;;8.00;;
10056;SDS011;5068;51.286;7.518;2022-12-07T05:18:37;12.63;;;7.32;;
10056;SDS011;5068;51.286;7.518;2022-12-07T05:20:10;13.57;;;7.47;;
10056;SDS011;5068;51.286;7.518;2022-12-07T05:21:44;16.00;;;7.72;;
10056;SDS011;5068;51.286;7.518;2022-12-07T05:23:17;14.85;;;7.72;;
10056;SDS011;5068;51.286;7.518;2022-12-07T05:24:51;14.02;;;7.25;;
10056;SDS011;5068;51.286;7.518;2022-12-07T05:26:24;12.65;;;7.68;;
10056;SDS011;5068;51.286;7.518;2022-12-07T05:27:57;13.93;;;8.00;;
10056;SDS011;5068;51.286;7.518;2022-12-07T05:29:31;14.45;;;7.38;;
10056;SDS011;5068;51.286;7.518;2022-12-07T05:31:04;12.40;;;6.97;;
10056;SDS011;5068;51.286;7.518;2022-12-07T05:32:37;14.63;;;7.28;;
10056;SDS011;5068;51.286;7.518;2022-12-07T05:34:12;13.20;;;7.43;;
10056;SDS011;5068;51.286;7.518;2022-12-07T05:35:45;13.82;;;7.18;;
10056;SDS011;5068;51.286;7.518;2022-12-07T05:37:18;14.40;;;7.43;;
10056;SDS011;5068;51.286;7.518;2022-12-07T05:38:51;12.20;;;6.65;;
10056;SDS011;5068;51.286;7.518;2022-12-07T05:40:23;14.20;;;6.90;;
10056;SDS011;5068;51.286;7.518;2022-12-07T05:41:57;11.95;;;6.90;;
10056;SDS011;5068;51.286;7.518;2022-12-07T05:43:45;10.30;;;6.15;;
10056;SDS011;5068;51.286;7.518;2022-12-07T05:45:18;13.05;;;7.47;;
10056;SDS011;5068;51.286;7.518;2022-12-07T05:46:51;12.15;;;7.22;;
10056;SDS011;5068;51.286;7.518;2022-12-07T05:48:25;17.02;;;7.75;;
10056;SDS011;5068;51.286;7.518;2022-12-07T05:50:00;13.52;;;6.70;;
10056;SDS011;5068;51.286;7.518;2022-12-07T05:51:34;13.70;;;7.55;;
10056;SDS011;5068;51.286;7.518;2022-12-07T05:53:07;16.63;;;7.03;;
10056;SDS011;5068;51.286;7.518;2022-12-07T05:54:40;13.63;;;7.38;;
10056;SDS011;5068;51.286;7.518;2022-12-07T05:56:13;12.48;;;6.45;;
10056;SDS011;5068;51.286;7.518;2022-12-07T05:57:45;11.30;;;6.25;;
10056;SDS011;5068;51.286;7.518;2022-12-07T05:59:33;10.80;;;6.53;;
10056;SDS011;5068;51.286;7.518;2022-12-07T06:01:06;10.27;;;6.28;;
10056;SDS011;5068;51.286;7.518;2022-12-07T06:02:38;10.20;;;6.78;;
10056;SDS011;5068;51.286;7.518;2022-12-07T06:04:12;12.23;;;6.32;;
10056;SDS011;5068;51.286;7.518;2022-12-07T06:05:46;12.77;;;6.50;;
10056;SDS011;5068;51.286;7.518;2022-12-07T06:07:19;12.90;;;7.15;;
10056;SDS011;5068;51.286;7.518;2022-12-07T06:08:53;12.13;;;6.78;;
10056;SDS011;5068;51.286;7.518;2022-12-07T06:10:25;13.27;;;6.90;;
10056;SDS011;5068;51.286;7.518;2022-12-07T06:11:58;11.52;;;7.30;;
10056;SDS011;5068;51.286;7.518;2022-12-07T06:13:49;12.48;;;6.55;;
10056;SDS011;5068;51.286;7.518;2022-12-07T06:15:21;11.18;;;6.53;;
10056;SDS011;5068;51.286;7.518;2022-12-07T06:16:55;10.07;;;6.47;;
10056;SDS011;5068;51.286;7.518;2022-12-07T06:18:28;11.65;;;6.28;;
10056;SDS011;5068;51.286;7.518;2022-12-07T06:20:02;11.73;;;6.97;;
10056;SDS011;5068;51.286;7.518;2022-12-07T06:21:38;13.68;;;6.22;;
10056;SDS011;5068;51.286;7.518;2022-12-07T06:23:11;13.43;;;6.97;;
10056;SDS011;5068;51.286;7.518;2022-12-07T06:24:44;10.88;;;5.93;;
10056;SDS011;5068;51.286;7.518;2022-12-07T06:26:18;11.85;;;6.55;;
10056;SDS011;5068;51.286;7.518;2022-12-07T06:27:51;9.13;;;5.70;;
10056;SDS011;5068;51.286;7.518;2022-12-07T06:29:26;11.40;;;6.18;;
10056;SDS011;5068;51.286;7.518;2022-12-07T06:31:01;13.02;;;6.70;;
10056;SDS011;5068;51.286;7.518;2022-12-07T06:32:41;13.10;;;6.18;;
10056;SDS011;5068;51.286;7.518;2022-12-07T06:34:14;11.95;;;6.65;;
10056;SDS011;5068;51.286;7.518;2022-12-07T06:35:50;11.13;;;6.10;;
10056;SDS011;5068;51.286;7.518;2022-12-07T06:37:25;11.18;;;6.20;;
10056;SDS011;5068;51.286;7.518;2022-12-07T06:38:58;10.98;;;6.38;;
10056;SDS011;5068;51.286;7.518;2022-12-07T06:40:30;10.05;;;6.03;;
10056;SDS011;5068;51.286;7.518;2022-12-07T06:42:04;12.32;;;7.10;;
10056;SDS011;5068;51.286;7.518;2022-12-07T06:43:37;12.45;;;6.45;;
10056;SDS011;5068;51.286;7.518;2022-12-07T06:45:11;14.25;;;7.05;;
10056;SDS011;5068;51.286;7.518;2022-12-07T06:46:44;11.88;;;7.45;;
10056;SDS011;5068;51.286;7.518;2022-12-07T06:48:17;12.57;;;6.72;;
10056;SDS011;5068;51.286;7.518;2022-12-07T06:49:50;11.80;;;7.15;;
10056;SDS011;5068;51.286;7.518;2022-12-07T06:51:24;10.73;;;6.82;;
10056;SDS011;5068;51.286;7.518;2022-12-07T06:52:58;12.18;;;7.07;;
10056;SDS011;5068;51.286;7.518;2022-12-07T06:54:31;14.30;;;7.20;;
10056;SDS011;5068;51.286;7.518;2022-12-07T06:56:05;14.20;;;7.00;;
10056;SDS011;5068;51.286;7.518;2022-12-07T06:57:39;11.55;;;6.75;;
10056;SDS011;5068;51.286;7.518;2022-12-07T06:59:12;10.68;;;6.22;;
10056;SDS011;5068;51.286;7.518;2022-12-07T07:00:47;11.70;;;6.90;;
10056;SDS011;5068;51.286;7.518;2022-12-07T07:02:21;12.35;;;6.72;;
10056;SDS011;5068;51.286;7.518;2022-12-07T07:03:55;11.52;;;6.88;;
10056;SDS011;5068;51.286;7.518;2022-12-07T07:05:28;12.95;;;6.82;;
10056;SDS011;5068;51.286;7.518;2022-12-07T07:07:01;12.75;;;6.72;;
10056;SDS011;5068;51.286;7.518;2022-12-07T07:08:36;13.43;;;7.10;;
10056;SDS011;5068;51.286;7.518;2022-12-07T07:10:10;11.32;;;6.50;;
10056;SDS011;5068;51.286;7.518;2022-12-07T07:11:45;13.48;;;6.80;;
10056;SDS011;5068;51.286;7.518;2022-12-07T07:13:18;13.10;;;7.75;;
10056;SDS011;5068;51.286;7.518;2022-12-07T07:14:51;10.95;;;6.40;;
10056;SDS011;5068;51.286;7.518;2022-12-07T07:16:24;14.02;;;6.07;;
10056;SDS011;5068;51.286;7.518;2022-12-07T07:17:58;11.63;;;7.32;;
10056;SDS011;5068;51.286;7.518;2022-12-07T07:19:38;10.63;;;6.30;;
10056;SDS011;5068;51.286;7.518;2022-12-07T07:21:11;12.05;;;6.97;;
10056;SDS011;5068;51.286;7.518;2022-12-07T07:22:44;12.95;;;7.13;;
10056;SDS011;5068;51.286;7.518;2022-12-07T07:24:19;15.18;;;6.65;;
10056;SDS011;5068;51.286;7.518;2022-12-07T07:25:52;12.75;;;6.32;;
10056;SDS011;5068;51.286;7.518;2022-12-07T07:27:26;12.30;;;6.50;;
10056;SDS011;5068;51.286;7.518;2022-12-07T07:28:59;12.82;;;7.07;;
10056;SDS011;5068;51.286;7.518;2022-12-07T07:30:32;8.50;;;5.60;;
10056;SDS011;5068;51.286;7.518;2022-12-07T07:32:06;12.13;;;6.13;;
10056;SDS011;5068;51.286;7.518;2022-12-07T07:33:40;12.65;;;6.22;;
10056;SDS011;5068;51.286;7.518;2022-12-07T07:35:13;9.70;;;5.93;;
10056;SDS011;5068;51.286;7.518;2022-12-07T07:36:47;11.02;;;5.88;;
10056;SDS011;5068;51.286;7.518;2022-12-07T07:38:20;10.63;;;6.13;;
10056;SDS011;5068;51.286;7.518;2022-12-07T07:39:55;10.43;;;5.85;;
10056;SDS011;5068;51.286;7.518;2022-12-07T07:41:28;12.85;;;6.45;;
10056;SDS011;5068;51.286;7.518;2022-12-07T07:43:01;12.68;;;6.60;;
10056;SDS011;5068;51.286;7.518;2022-12-07T07:44:35;12.32;;;6.70;;
10056;SDS011;5068;51.286;7.518;2022-12-07T07:46:08;11.55;;;6.18;;
10056;SDS011;5068;51.286;7.518;2022-12-07T07:47:41;11.80;;;6.45;;
10056;SDS011;5068;51.286;7.518;2022-12-07T07:49:15;11.75;;;6.53;;
10056;SDS011;5068;51.286;7.518;2022-12-07T07:50:48;11.65;;;6.47;;
10056;SDS011;5068;51.286;7.518;2022-12-07T07:52:21;10.05;;;5.90;;
10056;SDS011;5068;51.286;7.518;2022-12-07T07:53:54;12.25;;;6.70;;
10056;SDS011;5068;51.286;7.518;2022-12-07T07:55:29;12.45;;;6.65;;
10056;SDS011;5068;51.286;7.518;2022-12-07T07:57:02;14.15;;;7.32;;
10056;SDS011;5068;51.286;7.518;2022-12-07T07:58:35;11.18;;;7.03;;
10056;SDS011;5068;51.286;7.518;2022-12-07T08:00:12;11.32;;;6.55;;
10056;SDS011;5068;51.286;7.518;2022-12-07T08:01:47;11.80;;;6.38;;
10056;SDS011;5068;51.286;7.518;2022-12-07T08:03:20;12.90;;;6.82;;
10056;SDS011;5068;51.286;7.518;2022-12-07T08:04:54;9.75;;;5.90;;
10056;SDS011;5068;51.286;7.518;2022-12-07T08:06:27;12.73;;;7.05;;
10056;SDS011;5068;51.286;7.518;2022-12-07T08:08:03;15.25;;;6.60;;
10056;SDS011;5068;51.286;7.518;2022-12-07T08:09:37;12.57;;;7.80;;
10056;SDS011;5068;51.286;7.518;2022-12-07T08:11:12;11.77;;;6.97;;
10056;SDS011;5068;51.286;7.518;2022-12-07T08:14:36;10.32;;;5.90;;
10056;SDS011;5068;51.286;7.518;2022-12-07T08:16:10;12.57;;;7.13;;
10056;SDS011;5068;51.286;7.518;2022-12-07T08:17:43;13.45;;;7.93;;
10056;SDS011;5068;51.286;7.518;2022-12-07T08:19:16;13.95;;;7.75;;
10056;SDS011;5068;51.286;7.518;2022-12-07T08:20:49;12.25;;;6.93;;
10056;SDS011;5068;51.286;7.518;2022-12-07T08:22:23;14.13;;;7.43;;
10056;SDS011;5068;51.286;7.518;2022-12-07T08:23:56;12.75;;;7.07;;
10056;SDS011;5068;51.286;7.518;2022-12-07T08:25:30;14.30;;;7.47;;
10056;SDS011;5068;51.286;7.518;2022-12-07T08:27:06;13.10;;;7.95;;
10056;SDS011;5068;51.286;7.518;2022-12-07T08:28:39;14.48;;;7.57;;
10056;SDS011;5068;51.286;7.518;2022-12-07T08:30:13;15.80;;;8.38;;
10056;SDS011;5068;51.286;7.518;2022-12-07T08:31:46;13.93;;;8.30;;
10056;SDS011;5068;51.286;7.518;2022-12-07T08:33:20;13.55;;;8.00;;
10056;SDS011;5068;51.286;7.518;2022-12-07T08:34:54;13.20;;;8.05;;
10056;SDS011;5068;51.286;7.518;2022-12-07T08:36:27;15.98;;;7.90;;
10056;SDS011;5068;51.286;7.518;2022-12-07T08:38:00;14.23;;;8.50;;
10056;SDS011;5068;51.286;7.518;2022-12-07T08:39:35;12.80;;;7.25;;
10056;SDS011;5068;51.286;7.518;2022-12-07T08:41:08;13.50;;;7.85;;
10056;SDS011;5068;51.286;7.518;2022-12-07T08:42:43;15.52;;;8.35;;
10056;SDS011;5068;51.286;7.518;2022-12-07T08:44:16;15.95;;;8.68;;
10056;SDS011;5068;51.286;7.518;2022-12-07T08:45:50;16.65;;;8.73;;
10056;SDS011;5068;51.286;7.518;2022-12-07T08:47:33;11.80;;;7.80;;
10056;SDS011;5068;51.286;7.518;2022-12-07T08:49:09;13.02;;;8.43;;
10056;SDS011;5068;51.286;7.518;2022-12-07T08:50:47;13.18;;;7.63;;
10056;SDS011;5068;51.286;7.518;2022-12-07T08:52:21;11.73;;;7.30;;
10056;SDS011;5068;51.286;7.518;2022-12-07T08:53:54;15.25;;;8.27;;
10056;SDS011;5068;51.286;7.518;2022-12-07T08:55:33;14.00;;;7.90;;
10056;SDS011;5068;51.286;7.518;2022-12-07T08:57:07;16.35;;;8.30;;
10056;SDS011;5068;51.286;7.518;2022-12-07T08:58:43;15.30;;;9.35;;
10056;SDS011;5068;51.286;7.518;2022-12-07T09:01:51;11.98;;;6.75;;
10056;SDS011;5068;51.286;7.518;2022-12-07T09:03:25;13.57;;;7.95;;
10056;SDS011;5068;51.286;7.518;2022-12-07T09:04:58;15.07;;;9.00;;
10056;SDS011;5068;51.286;7.518;2022-12-07T09:06:31;38.35;;;19.23;;
10056;SDS011;5068;51.286;7.518;2022-12-07T09:08:05;24.90;;;12.35;;
10056;SDS011;5068;51.286;7.518;2022-12-07T09:09:40;23.90;;;13.73;;
10056;SDS011;5068;51.286;7.518;2022-12-07T09:11:14;19.05;;;10.77;;
10056;SDS011;5068;51.286;7.518;2022-12-07T09:12:47;16.80;;;9.85;;
10056;SDS011;5068;51.286;7.518;2022-12-07T09:14:22;16.40;;;8.85;;
10056;SDS011;5068;51.286;7.518;2022-12-07T09:17:31;16.60;;;8.70;;
10056;SDS011;5068;51.286;7.518;2022-12-07T09:19:05;15.45;;;8.55;;
10056;SDS011;5068;51.286;7.518;2022-12-07T09:20:40;12.27;;;7.15;;
10056;SDS011;5068;51.286;7.518;2022-12-07T09:22:13;13.77;;;7.57;;
10056;SDS011;5068;51.286;7.518;2022-12-07T09:23:46;24.63;;;11.07;;
10056;SDS011;5068;51.286;7.518;2022-12-07T09:25:20;13.52;;;7.78;;
10056;SDS011;5068;51.286;7.518;2022-12-07T09:26:53;12.02;;;7.35;;
10056;SDS011;5068;51.286;7.518;2022-12-07T09:28:27;11.68;;;7.28;;
10056;SDS011;5068;51.286;7.518;2022-12-07T09:30:01;22.77;;;11.23;;
10056;SDS011;5068;51.286;7.518;2022-12-07T09:31:36;13.32;;;7.50;;
10056;SDS011;5068;51.286;7.518;2022-12-07T09:33:09;13.30;;;8.25;;
10056;SDS011;5068;51.286;7.518;2022-12-07T09:34:43;17.30;;;9.32;;
10056;SDS011;5068;51.286;7.518;2022-12-07T09:36:16;16.48;;;10.20;;
10056;SDS011;5068;51.286;7.518;2022-12-07T09:37:49;19.63;;;11.70;;
10056;SDS011;5068;51.286;7.518;2022-12-07T09:39:23;16.63;;;9.18;;
10056;SDS011;5068;51.286;7.518;2022-12-07T09:40:56;14.73;;;8.90;;
10056;SDS011;5068;51.286;7.518;2022-12-07T09:42:31;13.98;;;8.70;;
10056;SDS011;5068;51.286;7.518;2022-12-07T09:44:09;12.07;;;7.80;;
10056;SDS011;5068;51.286;7.518;2022-12-07T09:45:49;13.45;;;7.95;;
10056;SDS011;5068;51.286;7.518;2022-12-07T09:47:26;13.48;;;7.78;;